Time;durP1;ratioP1;P1;durP2;ratioP2;P2;SDS_P1;SDS_P2;PMS_P1;PMS_P2;Temp;Humidity;BMP_temperature;BMP_pressure;BME280_temperature;BME280_humidity;BME280_pressure;Samples;Min_cycle;Max_cycle;Signal;HPM_P1;HPM_P2
2022/12/19 00:01:19;;;;;;;20.10;10.93;;;-3.70;99.90;;;;;;5053668;28;20248;-86
2022/12/19 00:03:45;;;;;;;21.83;11.30;;;-3.60;99.90;;;;;;5052931;28;20197;-86
2022/12/19 00:06:11;;;;;;;21.17;11.33;;;-3.60;99.90;;;;;;5052260;28;20175;-87
2022/12/19 00:08:39;;;;;;;19.63;11.10;;;-3.60;99.90;;;;;;5053602;28;20208;-87
2022/12/19 00:11:05;;;;;;;21.97;10.97;;;-3.60;99.90;;;;;;5052392;28;20184;-87
2022/12/19 00:13:31;;;;;;;20.70;10.43;;;-3.60;99.90;;;;;;5052558;28;20213;-87
2022/12/19 00:16:02;;;;;;;22.13;11.47;;;-3.60;99.90;;;;;;5053435;28;20184;-87
2022/12/19 00:18:28;;;;;;;24.73;11.70;;;-3.50;99.90;;;;;;5053168;28;20591;-86
2022/12/19 00:20:59;;;;;;;20.57;11.50;;;-3.60;99.90;;;;;;5051969;28;20264;-87
2022/12/19 00:23:26;;;;;;;22.03;11.47;;;-3.50;99.90;;;;;;5051554;28;20246;-87
2022/12/19 00:25:51;;;;;;;22.47;11.63;;;-3.50;99.90;;;;;;5051865;28;20258;-86
2022/12/19 00:28:17;;;;;;;21.67;11.67;;;-3.60;99.90;;;;;;5053266;28;20223;-86
2022/12/19 00:30:43;;;;;;;21.53;12.20;;;-3.60;99.90;;;;;;5051845;28;20184;-87
2022/12/19 00:33:08;;;;;;;24.63;12.57;;;-3.60;99.90;;;;;;5050982;28;20204;-87
2022/12/19 00:35:34;;;;;;;20.97;11.53;;;-3.60;99.90;;;;;;5051634;28;20235;-86
2022/12/19 00:37:59;;;;;;;20.30;10.47;;;-3.60;99.90;;;;;;5051838;28;20284;-87
2022/12/19 00:40:25;;;;;;;20.30;11.00;;;-3.60;99.90;;;;;;5051688;28;20197;-89
2022/12/19 00:42:50;;;;;;;21.97;11.10;;;-3.60;99.90;;;;;;5051062;28;20196;-87
2022/12/19 00:45:16;;;;;;;20.83;11.07;;;-3.60;99.90;;;;;;5052694;28;20182;-87
2022/12/19 00:47:41;;;;;;;24.10;12.20;;;-3.60;99.90;;;;;;5051583;28;20227;-86
2022/12/19 00:50:08;;;;;;;21.70;11.20;;;-3.50;99.90;;;;;;5051421;28;20210;-87
2022/12/19 00:52:33;;;;;;;23.27;11.67;;;-3.50;99.90;;;;;;5051938;28;20213;-87
2022/12/19 00:54:59;;;;;;;21.80;11.57;;;-3.50;99.90;;;;;;5051282;28;20205;-87
2022/12/19 00:57:24;;;;;;;21.70;11.30;;;-3.50;99.90;;;;;;5052601;28;20265;-87
2022/12/19 00:59:50;;;;;;;23.93;11.63;;;-3.40;99.90;;;;;;5051299;28;20520;-87
2022/12/19 01:02:15;;;;;;;21.20;10.80;;;-3.40;99.90;;;;;;5050648;28;20607;-86
2022/12/19 01:04:41;;;;;;;24.50;12.37;;;-3.40;99.90;;;;;;5050986;28;20216;-86
2022/12/19 01:07:07;;;;;;;23.40;12.53;;;-3.40;99.90;;;;;;5051328;28;20180;-87
2022/12/19 01:09:34;;;;;;;22.67;12.03;;;-3.40;99.90;;;;;;5052292;28;20204;-87
2022/12/19 01:14:45;;;;;;;23.53;12.27;;;-3.30;99.90;;;;;;5100140;22;20246;-79
2022/12/19 01:17:10;;;;;;;24.70;11.77;;;-3.30;99.90;;;;;;5080309;28;20169;-79
2022/12/19 01:19:36;;;;;;;24.37;13.07;;;-3.20;99.90;;;;;;5061878;28;20172;-79
2022/12/19 01:22:02;;;;;;;24.00;12.30;;;-3.20;99.90;;;;;;5062703;28;20204;-79
2022/12/19 01:24:27;;;;;;;22.43;11.80;;;-3.10;99.90;;;;;;5062695;28;20254;-79
2022/12/19 01:26:53;;;;;;;24.90;12.47;;;-3.10;99.90;;;;;;5074332;28;20261;-81
2022/12/19 01:29:18;;;;;;;25.13;12.47;;;-3.10;99.90;;;;;;5067559;28;20247;-81
2022/12/19 01:31:44;;;;;;;25.17;12.93;;;-3.10;99.90;;;;;;5055405;28;20222;-81
2022/12/19 01:34:09;;;;;;;26.17;12.03;;;-3.10;99.90;;;;;;5073182;28;20252;-81
2022/12/19 01:36:35;;;;;;;27.37;13.00;;;-3.00;99.90;;;;;;5073361;28;20169;-81
2022/12/19 01:39:00;;;;;;;22.63;12.20;;;-3.00;99.90;;;;;;5055875;28;20172;-81
2022/12/19 01:41:26;;;;;;;23.13;11.67;;;-3.00;99.90;;;;;;5073190;28;20236;-81
2022/12/19 01:44:05;;;;;;;22.73;11.77;;;-3.00;99.90;;;;;;5072852;28;20207;-80
2022/12/19 01:46:38;;;;;;;25.27;12.53;;;-3.00;99.90;;;;;;5073400;28;20180;-80
2022/12/19 01:49:09;;;;;;;22.47;11.70;;;-3.00;99.90;;;;;;5073624;28;20178;-80
2022/12/19 01:51:40;;;;;;;22.40;11.90;;;-3.00;99.90;;;;;;5074136;28;20212;-81
2022/12/19 01:54:13;;;;;;;22.30;12.27;;;-2.90;99.90;;;;;;5054688;28;20208;-80
2022/12/19 01:56:44;;;;;;;23.23;12.20;;;-2.90;99.90;;;;;;5072971;28;20183;-81
2022/12/19 01:59:16;;;;;;;23.87;12.10;;;-2.90;99.90;;;;;;5073767;28;20169;-80
2022/12/19 02:01:45;;;;;;;25.00;13.47;;;-2.90;99.90;;;;;;5074029;28;20176;-81
2022/12/19 02:04:12;;;;;;;26.43;13.13;;;-2.80;99.90;;;;;;5055140;28;20284;-81
2022/12/19 02:06:41;;;;;;;29.73;15.03;;;-2.80;99.90;;;;;;5055863;28;20177;-80
2022/12/19 02:09:07;;;;;;;27.50;13.17;;;-2.80;99.90;;;;;;5056013;28;20188;-81
2022/12/19 02:11:33;;;;;;;25.60;13.60;;;-2.80;99.90;;;;;;5055706;28;20208;-80
2022/12/19 02:13:58;;;;;;;29.80;13.60;;;-2.70;99.90;;;;;;5055361;28;20585;-81
2022/12/19 02:16:40;;;;;;;26.73;13.60;;;-2.70;99.90;;;;;;5075319;28;20595;-80
2022/12/19 02:19:34;;;;;;;24.63;13.47;;;-2.70;99.90;;;;;;5075211;28;20256;-81
2022/12/19 02:22:08;;;;;;;25.50;13.87;;;-2.70;99.90;;;;;;5074291;28;20180;-80
2022/12/19 02:25:16;;;;;;;25.50;12.77;;;-2.60;99.90;;;;;;5074369;28;20201;-81
2022/12/19 02:27:57;;;;;;;25.70;12.83;;;-2.60;99.90;;;;;;5074548;28;20561;-81
2022/12/19 02:30:44;;;;;;;25.97;13.47;;;-2.60;99.90;;;;;;5056716;28;20268;-81
2022/12/19 02:33:28;;;;;;;24.13;12.80;;;-2.60;99.90;;;;;;5055979;28;20201;-81
2022/12/19 02:36:16;;;;;;;23.50;12.27;;;-2.60;99.90;;;;;;5056822;28;20218;-81
2022/12/19 02:38:58;;;;;;;25.07;13.33;;;-2.50;99.90;;;;;;5057559;28;20173;-81
2022/12/19 02:41:56;;;;;;;26.80;13.70;;;-2.50;99.90;;;;;;5058017;28;20191;-81
2022/12/19 02:44:30;;;;;;;25.57;13.17;;;-2.50;99.90;;;;;;5032669;28;20200;-81
2022/12/19 02:46:59;;;;;;;25.27;12.60;;;-2.50;99.90;;;;;;5070404;28;20184;-81
2022/12/19 02:49:27;;;;;;;23.57;13.60;;;-2.50;99.90;;;;;;5057822;28;20240;-82
2022/12/19 02:51:53;;;;;;;27.30;12.80;;;-2.50;99.90;;;;;;5060725;28;20541;-81
2022/12/19 02:54:18;;;;;;;29.40;14.10;;;-2.50;99.90;;;;;;5058022;28;20721;-81
2022/12/19 02:56:59;;;;;;;26.53;13.10;;;-2.50;99.90;;;;;;5059505;28;20182;-81
2022/12/19 02:59:34;;;;;;;24.40;12.80;;;-2.40;99.90;;;;;;5058814;28;20178;-81
2022/12/19 03:02:16;;;;;;;24.67;12.63;;;-2.40;99.90;;;;;;5060467;28;20223;-80
2022/12/19 03:04:59;;;;;;;23.50;12.93;;;-2.40;99.90;;;;;;5062024;28;20566;-80
2022/12/19 03:07:40;;;;;;;27.33;13.70;;;-2.40;99.90;;;;;;5060361;28;20598;-80
2022/12/19 03:10:17;;;;;;;25.07;12.70;;;-2.40;99.90;;;;;;5063215;28;20174;-81
2022/12/19 03:13:20;;;;;;;23.80;13.03;;;-2.40;99.90;;;;;;5061882;28;20177;-81
2022/12/19 03:15:46;;;;;;;21.37;12.63;;;-2.30;99.90;;;;;;5020040;28;20194;-81
2022/12/19 03:18:12;;;;;;;24.73;13.20;;;-2.40;99.90;;;;;;5049990;28;20192;-81
2022/12/19 03:20:49;;;;;;;25.53;12.37;;;-2.40;99.90;;;;;;5061720;28;20173;-81
2022/12/19 03:23:15;;;;;;;22.97;13.00;;;-2.40;99.90;;;;;;5061744;28;20193;-81
2022/12/19 03:25:46;;;;;;;24.30;12.27;;;-2.40;99.90;;;;;;5064419;28;20174;-81
2022/12/19 03:28:19;;;;;;;24.13;12.17;;;-2.40;99.90;;;;;;5063267;28;20728;-81
2022/12/19 03:30:45;;;;;;;25.27;13.23;;;-2.40;99.90;;;;;;5063956;28;20174;-82
2022/12/19 03:33:15;;;;;;;25.03;13.07;;;-2.30;99.90;;;;;;5063650;28;20197;-81
2022/12/19 03:35:43;;;;;;;23.67;12.93;;;-2.30;99.90;;;;;;5066874;28;20174;-81
2022/12/19 03:38:12;;;;;;;27.07;12.73;;;-2.30;99.90;;;;;;5067375;28;20174;-81
2022/12/19 03:40:42;;;;;;;27.07;13.03;;;-2.30;99.90;;;;;;5067373;28;20178;-81
2022/12/19 03:43:09;;;;;;;27.07;13.50;;;-2.30;99.90;;;;;;5065637;28;20195;-81
2022/12/19 03:45:40;;;;;;;24.70;13.27;;;-2.30;99.90;;;;;;5068279;28;20175;-81
2022/12/19 03:48:21;;;;;;;23.57;12.67;;;-2.30;99.90;;;;;;5067533;28;20208;-81
2022/12/19 03:51:15;;;;;;;27.63;13.43;;;-2.30;99.90;;;;;;5070244;28;20186;-81
2022/12/19 03:54:06;;;;;;;25.33;13.03;;;-2.30;99.90;;;;;;5067380;28;20273;-81
2022/12/19 03:56:55;;;;;;;27.23;13.43;;;-2.20;99.90;;;;;;5069899;28;20209;-82
2022/12/19 03:59:48;;;;;;;26.67;12.43;;;-2.20;99.90;;;;;;5069654;28;20173;-82
2022/12/19 04:02:17;;;;;;;25.40;13.07;;;-2.20;99.90;;;;;;5069679;28;20186;-80
2022/12/19 04:04:49;;;;;;;24.33;12.70;;;-2.20;99.90;;;;;;5069952;28;20193;-81
2022/12/19 04:07:16;;;;;;;24.23;11.80;;;-2.20;99.90;;;;;;5053681;28;20273;-80
2022/12/19 04:09:43;;;;;;;21.33;12.33;;;-2.10;99.90;;;;;;5055155;28;20633;-81
2022/12/19 04:12:14;;;;;;;25.10;12.33;;;-2.10;99.90;;;;;;5053653;28;20178;-81
2022/12/19 04:14:40;;;;;;;25.90;12.77;;;-2.10;99.90;;;;;;5053124;28;20209;-81
2022/12/19 04:17:21;;;;;;;25.03;12.47;;;-2.10;99.90;;;;;;5053226;28;20187;-80
2022/12/19 04:20:06;;;;;;;26.17;13.70;;;-2.00;99.90;;;;;;5053202;28;20169;-81
2022/12/19 04:22:41;;;;;;;24.93;12.50;;;-2.00;99.90;;;;;;5053047;28;20185;-81
2022/12/19 04:25:11;;;;;;;27.17;14.17;;;-2.00;99.90;;;;;;5054775;28;20240;-81
2022/12/19 04:27:40;;;;;;;24.97;13.70;;;-2.00;99.90;;;;;;5055088;28;20172;-81
2022/12/19 04:30:06;;;;;;;25.90;12.90;;;-2.00;99.90;;;;;;5055162;28;20212;-81
2022/12/19 04:32:34;;;;;;;24.13;12.60;;;-2.00;99.90;;;;;;5053097;28;20174;-81
2022/12/19 04:35:00;;;;;;;27.03;13.27;;;-2.00;99.90;;;;;;5055146;28;20200;-81
2022/12/19 04:37:26;;;;;;;24.70;12.67;;;-2.10;99.90;;;;;;5053320;28;20177;-80
2022/12/19 04:39:52;;;;;;;24.07;12.67;;;-2.10;99.90;;;;;;5053192;28;20659;-81
2022/12/19 04:42:17;;;;;;;23.60;12.33;;;-2.10;99.90;;;;;;5052917;28;20166;-80
2022/12/19 04:44:43;;;;;;;26.73;13.73;;;-2.10;99.90;;;;;;5053288;28;20198;-81
2022/12/19 04:47:09;;;;;;;23.07;11.90;;;-2.00;99.90;;;;;;5054512;28;20173;-81
2022/12/19 04:49:34;;;;;;;24.53;12.93;;;-2.00;99.90;;;;;;5055200;28;20202;-81
2022/12/19 04:52:00;;;;;;;25.30;12.50;;;-2.00;99.90;;;;;;5050298;28;20186;-81
2022/12/19 04:54:25;;;;;;;25.20;13.13;;;-2.00;99.90;;;;;;5056088;28;20579;-80
2022/12/19 04:56:52;;;;;;;23.57;12.73;;;-2.00;99.90;;;;;;5056957;28;20260;-81
2022/12/19 04:59:17;;;;;;;26.57;13.23;;;-1.90;99.90;;;;;;5057466;28;20173;-80
2022/12/19 05:01:43;;;;;;;24.30;13.00;;;-1.90;99.90;;;;;;5056976;28;20222;-81
2022/12/19 05:04:09;;;;;;;26.60;13.20;;;-1.80;99.90;;;;;;5074460;28;20183;-81
2022/12/19 05:06:34;;;;;;;24.73;13.57;;;-1.80;99.90;;;;;;5057576;28;20177;-81
2022/12/19 05:09:00;;;;;;;25.83;13.37;;;-1.80;99.90;;;;;;5057608;28;20243;-80
2022/12/19 05:11:26;;;;;;;25.27;12.60;;;-1.70;99.90;;;;;;5076674;28;20181;-81
2022/12/19 05:13:51;;;;;;;23.97;12.43;;;-1.70;99.90;;;;;;5057482;28;20220;-81
2022/12/19 05:16:17;;;;;;;26.23;12.90;;;-1.70;99.90;;;;;;5057985;28;20171;-81
2022/12/19 05:18:43;;;;;;;23.30;12.13;;;-1.60;99.90;;;;;;5056973;28;20587;-81
2022/12/19 05:21:09;;;;;;;30.30;13.67;;;-1.60;99.90;;;;;;5077565;28;20173;-81
2022/12/19 05:23:35;;;;;;;25.70;12.77;;;-1.60;99.90;;;;;;5058491;28;20210;-81
2022/12/19 05:26:01;;;;;;;22.33;12.13;;;-1.60;99.90;;;;;;5059903;28;20175;-81
2022/12/19 05:28:27;;;;;;;22.53;12.10;;;-1.50;99.90;;;;;;5078521;28;20175;-81
2022/12/19 05:31:02;;;;;;;21.47;12.47;;;-1.50;99.90;;;;;;5060148;28;20181;-81
2022/12/19 05:33:28;;;;;;;23.80;11.70;;;-1.30;99.90;;;;;;5076878;28;20296;-80
2022/12/19 05:35:54;;;;;;;21.53;11.67;;;-1.20;99.90;;;;;;5059614;28;20202;-81
2022/12/19 05:38:19;;;;;;;18.50;11.03;;;-1.10;99.90;;;;;;5077510;28;20171;-81
2022/12/19 05:40:45;;;;;;;19.87;10.80;;;-0.90;99.90;;;;;;5059756;28;20180;-81
2022/12/19 05:43:10;;;;;;;19.20;10.70;;;-0.80;99.90;;;;;;5078433;28;20623;-81
2022/12/19 05:45:38;;;;;;;21.43;10.93;;;-0.80;99.90;;;;;;5061625;28;20629;-82
2022/12/19 05:48:03;;;;;;;20.17;10.63;;;-0.90;99.90;;;;;;5071307;28;20657;-81
2022/12/19 05:50:29;;;;;;;18.87;10.67;;;-0.80;99.90;;;;;;5080866;28;20309;-81
2022/12/19 05:52:55;;;;;;;21.93;11.40;;;-0.90;99.90;;;;;;5061252;28;20238;-81
2022/12/19 05:55:20;;;;;;;19.03;10.73;;;-0.80;99.90;;;;;;5062085;28;20263;-81
2022/12/19 05:57:46;;;;;;;18.47;10.80;;;-0.80;99.90;;;;;;5062053;28;20179;-81
2022/12/19 06:00:12;;;;;;;18.23;9.90;;;-0.70;99.90;;;;;;5062203;28;20187;-80
2022/12/19 06:02:38;;;;;;;19.80;10.83;;;-0.70;99.90;;;;;;5081367;28;20237;-81
2022/12/19 06:05:04;;;;;;;20.23;10.77;;;-0.60;99.90;;;;;;5064538;28;20689;-81
2022/12/19 06:07:30;;;;;;;17.63;10.60;;;-0.60;99.90;;;;;;5082451;28;20180;-82
2022/12/19 06:09:56;;;;;;;19.70;10.70;;;-0.50;99.90;;;;;;5061586;28;20213;-82
2022/12/19 06:12:22;;;;;;;18.23;10.60;;;-0.50;99.90;;;;;;5061071;28;20175;-83
2022/12/19 06:14:47;;;;;;;16.80;10.03;;;-0.40;99.90;;;;;;5079164;28;20240;-82
2022/12/19 06:17:13;;;;;;;20.17;9.67;;;-0.40;99.90;;;;;;5064936;28;20202;-81
2022/12/19 06:19:38;;;;;;;19.70;10.50;;;-0.40;99.90;;;;;;5066974;28;20171;-82
2022/12/19 06:22:04;;;;;;;20.20;10.53;;;-0.30;99.90;;;;;;5067508;28;20191;-81
2022/12/19 06:24:30;;;;;;;18.43;10.80;;;-0.40;99.90;;;;;;5067439;28;20198;-82
2022/12/19 06:26:55;;;;;;;20.73;10.07;;;-0.40;99.90;;;;;;5067051;28;20330;-83
2022/12/19 06:29:21;;;;;;;19.53;11.17;;;-0.40;99.90;;;;;;5063733;28;20187;-82
2022/12/19 06:31:46;;;;;;;23.70;11.17;;;-0.40;99.90;;;;;;5085197;28;20196;-82
2022/12/19 06:34:12;;;;;;;22.90;11.60;;;-0.40;99.90;;;;;;5083923;28;20250;-83
2022/12/19 06:36:37;;;;;;;19.77;10.90;;;-0.40;99.90;;;;;;5071517;28;20203;-83
2022/12/19 06:39:04;;;;;;;18.97;9.93;;;-0.40;99.90;;;;;;5071155;28;20183;-83
2022/12/19 06:44:15;;;;;;;21.00;10.70;;;-0.40;99.90;;;;;;5075938;28;20697;-80
2022/12/19 06:46:41;;;;;;;19.33;10.53;;;-0.30;99.90;;;;;;5058467;28;20179;-83
2022/12/19 06:49:07;;;;;;;16.67;10.00;;;-0.30;99.90;;;;;;5076053;28;20306;-81
2022/12/19 06:51:33;;;;;;;21.60;11.30;;;-0.20;99.90;;;;;;5076016;28;20302;-81
2022/12/19 06:53:59;;;;;;;19.17;10.87;;;0.20;99.90;;;;;;5057707;28;20240;-80
2022/12/19 06:56:25;;;;;;;19.77;11.13;;;0.30;99.90;;;;;;5057691;28;20172;-83
2022/12/19 06:58:50;;;;;;;17.87;10.27;;;0.20;99.90;;;;;;5057185;28;20183;-84
2022/12/19 07:01:48;;;;;;;18.47;10.13;;;0.00;99.90;;;;;;5057555;28;20198;-84
2022/12/19 07:04:19;;;;;;;20.13;10.87;;;-0.10;99.90;;;;;;5049267;28;20212;-83
2022/12/19 07:06:44;;;;;;;25.53;10.90;;;-0.10;99.90;;;;;;5057085;28;20318;-85
2022/12/19 07:09:10;;;;;;;20.43;11.03;;;-0.20;99.90;;;;;;5074723;28;20274;-84
2022/12/19 07:11:35;;;;;;;18.70;11.03;;;-0.10;99.90;;;;;;5056767;28;20184;-85
2022/12/19 07:14:01;;;;;;;22.17;12.13;;;-0.20;99.90;;;;;;5062299;22;20240;-88
2022/12/19 07:16:26;;;;;;;21.43;12.23;;;-0.10;99.90;;;;;;5015423;28;20185;-85
2022/12/19 07:18:53;;;;;;;22.33;12.00;;;-0.20;99.90;;;;;;5014660;28;20715;-86
2022/12/19 07:21:18;;;;;;;21.93;12.20;;;-0.10;99.90;;;;;;5015757;28;20174;-89
2022/12/19 07:23:44;;;;;;;22.10;12.03;;;-0.20;99.90;;;;;;5013996;28;20248;-87
2022/12/19 07:26:10;;;;;;;22.43;12.00;;;-0.20;99.90;;;;;;5010380;28;20221;-87
2022/12/19 07:28:37;;;;;;;21.90;12.27;;;-0.10;99.90;;;;;;5006616;28;20213;-87
2022/12/19 07:31:03;;;;;;;22.00;12.33;;;-0.20;99.90;;;;;;5033463;28;20188;-89
2022/12/19 07:33:28;;;;;;;22.20;12.10;;;-0.10;99.90;;;;;;5034133;28;20228;-83
2022/12/19 07:35:54;;;;;;;21.90;12.20;;;-0.20;99.90;;;;;;5033289;28;20199;-86
2022/12/19 07:38:20;;;;;;;21.90;12.03;;;-0.20;99.90;;;;;;5034162;28;20177;-86
2022/12/19 07:40:45;;;;;;;20.77;11.83;;;-0.20;99.90;;;;;;5033072;28;20187;-86
2022/12/19 07:43:11;;;;;;;24.83;12.53;;;-0.20;99.90;;;;;;5033691;28;20177;-89
2022/12/19 07:45:37;;;;;;;27.93;13.33;;;-0.10;99.90;;;;;;5034145;28;20260;-87
2022/12/19 07:48:05;;;;;;;23.43;12.23;;;-0.10;99.90;;;;;;5027217;28;20247;-88
2022/12/19 07:50:30;;;;;;;22.57;12.67;;;-0.10;99.90;;;;;;5018500;28;20178;-86
2022/12/19 07:52:57;;;;;;;21.03;11.40;;;-0.10;99.90;;;;;;5012220;28;20186;-86
2022/12/19 07:55:24;;;;;;;19.23;11.07;;;0.00;99.90;;;;;;5014086;28;20235;-85
2022/12/19 07:57:49;;;;;;;21.77;10.87;;;0.20;99.90;;;;;;5012819;28;20182;-88
2022/12/19 08:00:15;;;;;;;20.97;11.20;;;0.50;99.90;;;;;;5014059;28;20695;-86
2022/12/19 08:02:41;;;;;;;18.30;10.93;;;0.50;99.90;;;;;;5013394;28;20193;-86
2022/12/19 08:05:07;;;;;;;19.97;10.10;;;0.60;99.90;;;;;;5013743;28;20258;-86
2022/12/19 08:07:32;;;;;;;19.33;11.00;;;0.70;99.90;;;;;;5013704;28;20179;-86
2022/12/19 08:09:58;;;;;;;21.90;11.13;;;0.70;99.90;;;;;;5012522;28;20183;-87
2022/12/19 08:12:24;;;;;;;21.47;10.63;;;0.70;99.90;;;;;;5013499;28;20663;-85
2022/12/19 08:14:49;;;;;;;19.87;11.73;;;0.70;99.90;;;;;;5012383;28;20210;-86
2022/12/19 08:17:15;;;;;;;21.50;12.17;;;0.70;99.90;;;;;;5013845;28;20185;-86
2022/12/19 08:19:40;;;;;;;21.13;11.40;;;0.60;99.90;;;;;;5012682;28;20634;-86
2022/12/19 08:22:06;;;;;;;21.93;11.73;;;0.60;99.90;;;;;;5012578;28;20175;-86
2022/12/19 08:24:32;;;;;;;23.73;12.60;;;0.60;99.90;;;;;;5011942;28;20234;-86
2022/12/19 08:26:57;;;;;;;21.27;12.10;;;0.60;99.90;;;;;;5013565;28;20668;-85
2022/12/19 08:29:23;;;;;;;23.37;12.43;;;0.60;99.90;;;;;;5013554;28;20202;-86
2022/12/19 08:31:49;;;;;;;23.10;12.57;;;0.50;99.90;;;;;;5013352;28;20533;-86
2022/12/19 08:34:15;;;;;;;23.87;12.60;;;0.50;99.90;;;;;;5011580;28;20198;-86
2022/12/19 08:36:41;;;;;;;27.03;13.17;;;0.50;99.90;;;;;;5012198;28;20700;-85
2022/12/19 08:39:06;;;;;;;39.90;19.47;;;0.60;99.90;;;;;;5011489;28;20641;-86
2022/12/19 08:41:32;;;;;;;44.57;20.23;;;0.70;99.90;;;;;;5012116;28;20182;-85
2022/12/19 08:43:58;;;;;;;25.53;13.90;;;0.80;99.90;;;;;;5012901;28;20576;-86
2022/12/19 08:46:24;;;;;;;19.43;11.17;;;1.00;99.90;;;;;;5017218;28;20167;-85
2022/12/19 08:48:49;;;;;;;20.30;10.33;;;1.10;99.90;;;;;;5024812;28;20198;-83
2022/12/19 08:51:16;;;;;;;20.90;11.23;;;1.20;99.90;;;;;;5031925;28;20293;-86
2022/12/19 08:53:45;;;;;;;16.17;9.43;;;1.30;99.90;;;;;;5032793;28;20213;-86
2022/12/19 08:56:12;;;;;;;22.93;11.47;;;1.20;99.90;;;;;;5032143;28;20182;-86
2022/12/19 08:58:38;;;;;;;19.87;11.23;;;1.20;99.90;;;;;;5032000;28;20170;-85
2022/12/19 09:01:07;;;;;;;17.67;9.73;;;1.30;99.90;;;;;;5033197;28;20178;-85
2022/12/19 09:03:34;;;;;;;16.83;9.53;;;1.50;99.90;;;;;;5031041;28;20285;-85
2022/12/19 09:06:02;;;;;;;17.67;9.13;;;1.70;99.90;;;;;;5032625;28;20248;-85
2022/12/19 09:08:28;;;;;;;14.67;8.97;;;2.00;99.90;;;;;;5031806;28;20220;-83
2022/12/19 09:10:59;;;;;;;16.70;8.53;;;1.90;99.90;;;;;;5031549;28;20170;-86
2022/12/19 09:13:26;;;;;;;16.93;9.70;;;2.00;99.90;;;;;;5032112;28;20174;-83
2022/12/19 09:16:06;;;;;;;14.83;8.30;;;2.10;99.90;;;;;;5031105;28;20178;-84
2022/12/19 09:18:32;;;;;;;16.80;9.40;;;2.20;99.90;;;;;;5030968;28;20185;-85
2022/12/19 09:20:59;;;;;;;15.93;8.83;;;2.20;99.90;;;;;;5032480;28;20644;-85
2022/12/19 09:23:26;;;;;;;18.33;9.93;;;2.10;99.90;;;;;;5026282;28;20269;-84
2022/12/19 09:25:52;;;;;;;16.80;9.50;;;2.10;99.90;;;;;;5008628;28;20183;-85
2022/12/19 09:28:18;;;;;;;17.63;10.30;;;2.00;99.90;;;;;;5012541;28;20183;-85
2022/12/19 09:30:44;;;;;;;18.20;9.53;;;1.90;99.90;;;;;;5012335;28;20581;-82
2022/12/19 09:33:10;;;;;;;17.03;9.83;;;1.90;99.90;;;;;;5010500;28;20214;-86
2022/12/19 09:35:35;;;;;;;16.70;9.27;;;2.00;99.90;;;;;;5012533;28;20298;-85
2022/12/19 09:38:02;;;;;;;17.93;9.30;;;2.10;99.90;;;;;;5011249;28;20258;-87
2022/12/19 09:40:34;;;;;;;19.47;11.43;;;2.10;99.90;;;;;;5006813;28;20179;-85
2022/12/19 09:43:18;;;;;;;26.97;13.67;;;2.20;99.90;;;;;;5011416;28;20230;-86
2022/12/19 09:46:08;;;;;;;21.53;10.23;;;2.10;99.90;;;;;;5011089;28;20180;-85
2022/12/19 09:48:33;;;;;;;21.10;10.63;;;2.10;99.90;;;;;;5012376;28;20203;-86
2022/12/19 09:51:15;;;;;;;17.47;10.03;;;2.00;99.90;;;;;;5013642;28;20198;-86
2022/12/19 09:54:12;;;;;;;19.83;10.43;;;2.00;99.90;;;;;;5014775;28;20573;-86
2022/12/19 09:56:41;;;;;;;19.90;10.27;;;1.90;99.90;;;;;;4995834;28;20243;-86
2022/12/19 09:59:59;;;;;;;22.03;11.43;;;2.00;99.90;;;;;;5004650;28;20190;-86
2022/12/19 10:02:48;;;;;;;21.43;10.47;;;2.10;99.90;;;;;;4998773;28;20187;-86
2022/12/19 10:05:32;;;;;;;20.40;10.53;;;2.10;99.90;;;;;;5014855;28;20254;-87
2022/12/19 10:07:58;;;;;;;18.73;10.70;;;2.10;99.90;;;;;;5016254;28;20183;-86
2022/12/19 10:10:44;;;;;;;19.27;10.87;;;2.00;99.90;;;;;;5015134;28;20198;-86
2022/12/19 10:13:27;;;;;;;25.87;11.27;;;2.00;99.90;;;;;;5031947;28;20254;-85
2022/12/19 10:16:15;;;;;;;18.47;10.73;;;2.00;99.90;;;;;;5016227;28;20191;-85
2022/12/19 10:18:54;;;;;;;17.83;10.43;;;2.00;99.90;;;;;;5011855;28;20270;-86
2022/12/19 10:21:43;;;;;;;19.63;10.93;;;2.00;99.90;;;;;;5023781;28;20183;-86
2022/12/19 10:24:19;;;;;;;18.77;9.97;;;2.00;99.90;;;;;;4995842;28;20199;-85
2022/12/19 10:26:55;;;;;;;16.73;9.80;;;2.20;99.90;;;;;;4995596;28;20201;-82
2022/12/19 10:29:56;;;;;;;15.30;9.27;;;2.30;99.90;;;;;;4994784;28;20587;-86
2022/12/19 10:32:26;;;;;;;17.10;10.13;;;2.40;99.90;;;;;;4973833;28;20665;-86
2022/12/19 10:34:52;;;;;;;19.33;10.10;;;2.40;99.90;;;;;;4992213;28;20219;-86
2022/12/19 10:37:26;;;;;;;18.87;11.00;;;2.50;99.90;;;;;;4996096;28;20177;-85
2022/12/19 10:39:58;;;;;;;17.47;10.33;;;2.50;99.90;;;;;;4995989;28;20592;-85
2022/12/19 10:42:39;;;;;;;20.93;10.83;;;2.40;99.90;;;;;;4994355;28;20191;-85
2022/12/19 10:45:16;;;;;;;16.80;9.40;;;2.40;99.90;;;;;;4996079;28;20750;-85
2022/12/19 10:47:42;;;;;;;16.97;9.17;;;2.50;99.90;;;;;;4996101;28;20190;-86
2022/12/19 10:50:20;;;;;;;16.43;9.50;;;2.60;99.90;;;;;;4994990;28;20176;-86
2022/12/19 10:52:51;;;;;;;14.40;7.67;;;2.70;99.90;;;;;;4995548;28;20191;-85
2022/12/19 10:55:33;;;;;;;14.70;9.53;;;2.80;99.90;;;;;;4994410;28;20821;-86
2022/12/19 10:58:09;;;;;;;16.07;8.80;;;2.90;99.90;;;;;;4995915;28;20594;-86
2022/12/19 11:00:35;;;;;;;15.97;9.07;;;2.90;99.90;;;;;;4995481;28;20176;-82
2022/12/19 11:03:12;;;;;;;15.13;8.90;;;2.90;99.90;;;;;;4992967;28;20173;-86
2022/12/19 11:05:48;;;;;;;16.47;9.17;;;3.00;99.90;;;;;;4996126;28;20170;-83
2022/12/19 11:08:34;;;;;;;14.40;8.50;;;3.00;99.90;;;;;;4999157;28;20179;-84
2022/12/19 11:11:11;;;;;;;16.50;9.03;;;3.00;99.90;;;;;;4999191;28;20181;-84
2022/12/19 11:13:36;;;;;;;16.70;9.53;;;3.10;99.90;;;;;;4996406;28;20271;-84
2022/12/19 11:16:05;;;;;;;15.20;8.77;;;3.10;99.90;;;;;;5002200;28;20177;-84
2022/12/19 11:18:35;;;;;;;15.60;9.17;;;3.10;99.90;;;;;;4998253;28;20262;-85
2022/12/19 11:21:06;;;;;;;15.77;8.90;;;3.10;99.90;;;;;;4999490;28;20183;-83
2022/12/19 11:23:33;;;;;;;15.47;9.13;;;3.10;99.90;;;;;;4995137;28;20196;-87
2022/12/19 11:26:05;;;;;;;17.30;10.17;;;3.10;99.90;;;;;;4994437;28;20188;-84
2022/12/19 11:28:40;;;;;;;14.70;8.87;;;3.20;99.90;;;;;;4995871;28;20169;-87
2022/12/19 11:31:18;;;;;;;16.40;9.03;;;3.10;99.90;;;;;;4994328;28;20180;-81
2022/12/19 11:33:53;;;;;;;16.20;9.00;;;3.10;99.90;;;;;;4993695;28;20209;-84
2022/12/19 11:36:38;;;;;;;17.47;9.77;;;3.20;99.90;;;;;;4995427;28;20705;-86
2022/12/19 11:39:11;;;;;;;15.93;8.87;;;3.20;99.90;;;;;;4993947;28;20173;-85
2022/12/19 11:41:54;;;;;;;15.27;9.07;;;3.20;99.90;;;;;;4995537;28;20189;-82
2022/12/19 11:44:31;;;;;;;16.00;9.00;;;3.20;99.90;;;;;;4996361;28;20237;-82
2022/12/19 11:47:19;;;;;;;15.40;8.57;;;3.20;99.90;;;;;;5019393;28;20564;-83
2022/12/19 11:49:54;;;;;;;19.50;9.60;;;3.20;99.90;;;;;;5014295;28;20184;-83
2022/12/19 11:53:06;;;;;;;17.57;9.30;;;3.10;99.90;;;;;;5012660;28;20187;-83
2022/12/19 11:56:12;;;;;;;16.13;8.87;;;3.10;99.90;;;;;;4989137;28;20656;-82
2022/12/19 11:58:38;;;;;;;17.47;9.50;;;3.00;99.90;;;;;;5015375;28;20237;-82
2022/12/19 12:01:37;;;;;;;17.57;10.10;;;3.00;99.90;;;;;;5024049;28;20248;-83
2022/12/19 12:04:15;;;;;;;15.60;9.43;;;3.00;99.90;;;;;;5032208;28;20195;-82
2022/12/19 12:06:49;;;;;;;16.83;9.23;;;3.00;99.90;;;;;;5034084;28;20207;-83
2022/12/19 12:09:36;;;;;;;14.93;9.30;;;3.00;99.90;;;;;;5032451;28;20234;-83
2022/12/19 12:12:17;;;;;;;16.37;8.90;;;3.10;99.90;;;;;;5033618;28;20172;-83
2022/12/19 12:15:17;;;;;;;17.67;8.60;;;3.20;99.90;;;;;;5031574;28;20298;-82
2022/12/19 12:17:50;;;;;;;13.97;8.43;;;3.30;99.90;;;;;;5033519;28;20181;-82
2022/12/19 12:20:15;;;;;;;17.80;9.23;;;3.30;99.90;;;;;;5032513;28;20167;-82
2022/12/19 12:22:51;;;;;;;16.10;8.57;;;3.30;99.90;;;;;;5032093;28;20191;-82
2022/12/19 12:25:37;;;;;;;16.43;8.93;;;3.40;99.90;;;;;;5032179;28;20287;-83
2022/12/19 12:28:17;;;;;;;16.03;9.10;;;3.50;99.90;;;;;;5033420;28;20180;-83
2022/12/19 12:31:12;;;;;;;13.87;8.23;;;3.50;99.90;;;;;;5033589;28;20161;-83
2022/12/19 12:34:14;;;;;;;13.47;8.80;;;3.50;99.90;;;;;;5003732;28;20211;-82
2022/12/19 12:37:06;;;;;;;14.07;7.97;;;3.50;99.90;;;;;;5032434;28;20176;-82
2022/12/19 12:39:37;;;;;;;12.87;7.97;;;3.40;99.90;;;;;;5033315;28;20187;-83
2022/12/19 12:42:41;;;;;;;17.07;8.67;;;3.40;99.90;;;;;;5031927;28;20522;-82
2022/12/19 12:45:25;;;;;;;15.07;8.47;;;3.40;99.90;;;;;;5032102;28;20191;-83
2022/12/19 12:47:52;;;;;;;14.73;8.53;;;3.40;99.90;;;;;;5033505;28;20223;-83
2022/12/19 12:50:21;;;;;;;15.87;8.17;;;3.40;99.90;;;;;;5031490;28;20544;-83
2022/12/19 12:53:05;;;;;;;16.90;9.23;;;3.30;99.90;;;;;;5032723;28;20172;-83
2022/12/19 12:55:38;;;;;;;16.10;8.67;;;3.40;99.90;;;;;;5033080;28;20283;-82
2022/12/19 12:58:24;;;;;;;13.87;8.97;;;3.20;99.90;;;;;;5031937;28;20173;-83
2022/12/19 13:01:23;;;;;;;13.00;8.03;;;3.10;99.90;;;;;;5001512;28;20180;-83